sensor_id;sensor_type;location;lat;lon;timestamp;pressure;altitude;pressure_sealevel;temperature;humidity
11808;BME280;5961;42.640;23.380;2023-06-10T00:00:01;93698.84;;;19.98;100.00
11808;BME280;5961;42.640;23.380;2023-06-10T00:02:30;93695.31;;;20.05;100.00
11808;BME280;5961;42.640;23.380;2023-06-10T00:04:57;93693.38;;;20.05;100.00
11808;BME280;5961;42.640;23.380;2023-06-10T00:07:24;93703.72;;;20.10;100.00
11808;BME280;5961;42.640;23.380;2023-06-10T00:09:52;93691.78;;;20.11;100.00
11808;BME280;5961;42.640;23.380;2023-06-10T00:12:18;93702.88;;;20.20;99.03
11808;BME280;5961;42.640;23.380;2023-06-10T00:14:45;93697.84;;;20.22;97.32
11808;BME280;5961;42.640;23.380;2023-06-10T00:17:15;93698.31;;;20.14;96.02
11808;BME280;5961;42.640;23.380;2023-06-10T00:19:42;93706.06;;;20.08;96.02
11808;BME280;5961;42.640;23.380;2023-06-10T00:22:09;93689.22;;;19.97;95.62
11808;BME280;5961;42.640;23.380;2023-06-10T00:24:36;93697.63;;;20.06;95.58
11808;BME280;5961;42.640;23.380;2023-06-10T00:27:05;93699.22;;;20.00;96.58
11808;BME280;5961;42.640;23.380;2023-06-10T00:29:32;93682.00;;;19.87;97.03
11808;BME280;5961;42.640;23.380;2023-06-10T00:31:59;93693.47;;;19.95;97.32
11808;BME280;5961;42.640;23.380;2023-06-10T00:34:25;93706.25;;;19.91;97.64
11808;BME280;5961;42.640;23.380;2023-06-10T00:36:52;93709.28;;;19.93;97.56
11808;BME280;5961;42.640;23.380;2023-06-10T00:39:18;93703.50;;;19.94;97.82
11808;BME280;5961;42.640;23.380;2023-06-10T00:41:45;93711.22;;;19.92;98.97
11808;BME280;5961;42.640;23.380;2023-06-10T00:44:13;93710.06;;;19.93;99.31
11808;BME280;5961;42.640;23.380;2023-06-10T00:46:40;93701.91;;;20.00;99.38
11808;BME280;5961;42.640;23.380;2023-06-10T00:49:07;93698.13;;;19.94;99.68
11808;BME280;5961;42.640;23.380;2023-06-10T00:51:34;93698.06;;;19.98;99.82
11808;BME280;5961;42.640;23.380;2023-06-10T00:54:02;93707.69;;;19.99;100.00
11808;BME280;5961;42.640;23.380;2023-06-10T00:56:29;93700.72;;;20.01;100.00
11808;BME280;5961;42.640;23.380;2023-06-10T00:58:56;93713.13;;;19.95;100.00
11808;BME280;5961;42.640;23.380;2023-06-10T01:01:25;93703.88;;;19.96;100.00
11808;BME280;5961;42.640;23.380;2023-06-10T01:03:52;93710.81;;;19.97;100.00
11808;BME280;5961;42.640;23.380;2023-06-10T01:06:26;93707.72;;;19.95;100.00
11808;BME280;5961;42.640;23.380;2023-06-10T01:08:57;93705.03;;;19.95;100.00
11808;BME280;5961;42.640;23.380;2023-06-10T01:11:31;93700.47;;;19.89;100.00
11808;BME280;5961;42.640;23.380;2023-06-10T01:14:00;93700.06;;;19.90;100.00
11808;BME280;5961;42.640;23.380;2023-06-10T01:16:29;93701.66;;;19.84;100.00
11808;BME280;5961;42.640;23.380;2023-06-10T01:18:56;93697.81;;;19.85;100.00
11808;BME280;5961;42.640;23.380;2023-06-10T01:21:24;93714.34;;;19.87;100.00
11808;BME280;5961;42.640;23.380;2023-06-10T01:23:52;93703.22;;;19.85;100.00
11808;BME280;5961;42.640;23.380;2023-06-10T01:26:25;93676.03;;;19.62;100.00
11808;BME280;5961;42.640;23.380;2023-06-10T01:28:58;93708.66;;;19.78;100.00
11808;BME280;5961;42.640;23.380;2023-06-10T01:31:32;93708.22;;;19.83;100.00
11808;BME280;5961;42.640;23.380;2023-06-10T01:34:07;93705.50;;;19.83;100.00
11808;BME280;5961;42.640;23.380;2023-06-10T01:36:37;93699.75;;;19.81;100.00
11808;BME280;5961;42.640;23.380;2023-06-10T01:39:05;93697.09;;;19.78;100.00
11808;BME280;5961;42.640;23.380;2023-06-10T01:41:35;93710.56;;;19.81;100.00
11808;BME280;5961;42.640;23.380;2023-06-10T01:44:02;93702.47;;;19.81;100.00
11808;BME280;5961;42.640;23.380;2023-06-10T01:46:29;93702.47;;;19.81;100.00
11808;BME280;5961;42.640;23.380;2023-06-10T01:48:56;93689.78;;;19.75;100.00
11808;BME280;5961;42.640;23.380;2023-06-10T01:51:22;93705.50;;;19.87;100.00
11808;BME280;5961;42.640;23.380;2023-06-10T01:53:51;93701.63;;;19.91;100.00
11808;BME280;5961;42.640;23.380;2023-06-10T01:56:17;93702.34;;;19.92;100.00
11808;BME280;5961;42.640;23.380;2023-06-10T01:58:45;93692.75;;;19.91;100.00
11808;BME280;5961;42.640;23.380;2023-06-10T02:01:12;93689.66;;;19.92;100.00
11808;BME280;5961;42.640;23.380;2023-06-10T02:03:38;93691.22;;;19.90;100.00
11808;BME280;5961;42.640;23.380;2023-06-10T02:06:05;93693.94;;;19.86;100.00
11808;BME280;5961;42.640;23.380;2023-06-10T02:08:32;93694.75;;;19.80;100.00
11808;BME280;5961;42.640;23.380;2023-06-10T02:11:00;93693.25;;;19.75;100.00
11808;BME280;5961;42.640;23.380;2023-06-10T02:13:27;93692.94;;;19.69;100.00
11808;BME280;5961;42.640;23.380;2023-06-10T02:15:53;93692.19;;;19.62;100.00
11808;BME280;5961;42.640;23.380;2023-06-10T02:18:20;93684.97;;;19.52;100.00
11808;BME280;5961;42.640;23.380;2023-06-10T02:20:47;93682.25;;;19.55;100.00
11808;BME280;5961;42.640;23.380;2023-06-10T02:23:14;93686.47;;;19.56;100.00
11808;BME280;5961;42.640;23.380;2023-06-10T02:25:40;93674.25;;;19.38;100.00
11808;BME280;5961;42.640;23.380;2023-06-10T02:28:08;93678.47;;;19.46;100.00
11808;BME280;5961;42.640;23.380;2023-06-10T02:30:38;93670.78;;;19.44;100.00
11808;BME280;5961;42.640;23.380;2023-06-10T02:33:05;93665.06;;;19.32;100.00
11808;BME280;5961;42.640;23.380;2023-06-10T02:35:35;93665.06;;;19.32;100.00
11808;BME280;5961;42.640;23.380;2023-06-10T02:38:02;93651.34;;;19.15;100.00
11808;BME280;5961;42.640;23.380;2023-06-10T02:40:29;93658.31;;;19.02;100.00
11808;BME280;5961;42.640;23.380;2023-06-10T02:42:56;93655.66;;;18.95;100.00
11808;BME280;5961;42.640;23.380;2023-06-10T02:45:24;93651.06;;;18.92;100.00
11808;BME280;5961;42.640;23.380;2023-06-10T02:47:50;93659.16;;;18.92;100.00
11808;BME280;5961;42.640;23.380;2023-06-10T02:50:17;93652.97;;;18.95;100.00
11808;BME280;5961;42.640;23.380;2023-06-10T02:52:44;93653.72;;;18.99;100.00
11808;BME280;5961;42.640;23.380;2023-06-10T02:55:11;93654.44;;;19.07;100.00
11808;BME280;5961;42.640;23.380;2023-06-10T02:57:37;93649.03;;;19.10;100.00
11808;BME280;5961;42.640;23.380;2023-06-10T03:00:05;93659.81;;;19.07;100.00
11808;BME280;5961;42.640;23.380;2023-06-10T03:02:37;93639.47;;;19.02;100.00
11808;BME280;5961;42.640;23.380;2023-06-10T03:05:04;93649.81;;;19.07;100.00
11808;BME280;5961;42.640;23.380;2023-06-10T03:07:35;93656.34;;;19.10;100.00
11808;BME280;5961;42.640;23.380;2023-06-10T03:10:03;93642.19;;;18.95;100.00
11808;BME280;5961;42.640;23.380;2023-06-10T03:12:29;93654.41;;;19.10;100.00
11808;BME280;5961;42.640;23.380;2023-06-10T03:14:56;93649.81;;;19.11;100.00
11808;BME280;5961;42.640;23.380;2023-06-10T03:17:23;93653.97;;;19.19;100.00
11808;BME280;5961;42.640;23.380;2023-06-10T03:19:51;93650.53;;;19.18;100.00
11808;BME280;5961;42.640;23.380;2023-06-10T03:22:18;93663.56;;;19.27;100.00
11808;BME280;5961;42.640;23.380;2023-06-10T03:24:45;93670.44;;;19.32;100.00
11808;BME280;5961;42.640;23.380;2023-06-10T03:27:15;93668.50;;;19.36;100.00
11808;BME280;5961;42.640;23.380;2023-06-10T03:29:43;93676.19;;;19.41;100.00
11808;BME280;5961;42.640;23.380;2023-06-10T03:32:09;93668.88;;;19.38;100.00
11808;BME280;5961;42.640;23.380;2023-06-10T03:34:36;93680.06;;;19.40;100.00
11808;BME280;5961;42.640;23.380;2023-06-10T03:37:05;93681.19;;;19.46;100.00
11808;BME280;5961;42.640;23.380;2023-06-10T03:39:32;93681.13;;;19.49;100.00
11808;BME280;5961;42.640;23.380;2023-06-10T03:41:59;93680.75;;;19.51;100.00
11808;BME280;5961;42.640;23.380;2023-06-10T03:44:25;93680.31;;;19.56;100.00
11808;BME280;5961;42.640;23.380;2023-06-10T03:46:53;93684.13;;;19.62;100.00
11808;BME280;5961;42.640;23.380;2023-06-10T03:49:19;93690.25;;;19.66;100.00
11808;BME280;5961;42.640;23.380;2023-06-10T03:51:47;93686.03;;;19.65;100.00
11808;BME280;5961;42.640;23.380;2023-06-10T03:54:15;93685.97;;;19.72;100.00
11808;BME280;5961;42.640;23.380;2023-06-10T03:56:41;93686.31;;;19.74;100.00
11808;BME280;5961;42.640;23.380;2023-06-10T03:59:08;93692.47;;;19.78;100.00
11808;BME280;5961;42.640;23.380;2023-06-10T04:01:35;93684.75;;;19.77;100.00
11808;BME280;5961;42.640;23.380;2023-06-10T04:04:02;93684.03;;;19.76;100.00
11808;BME280;5961;42.640;23.380;2023-06-10T04:06:29;93687.88;;;19.75;100.00
11808;BME280;5961;42.640;23.380;2023-06-10T04:08:57;93691.72;;;19.74;100.00
11808;BME280;5961;42.640;23.380;2023-06-10T04:11:25;93685.56;;;19.73;100.00
11808;BME280;5961;42.640;23.380;2023-06-10T04:13:52;93685.63;;;19.70;100.00
11808;BME280;5961;42.640;23.380;2023-06-10T04:16:18;93687.91;;;19.68;100.00
11808;BME280;5961;42.640;23.380;2023-06-10T04:18:46;93690.25;;;19.66;100.00
11808;BME280;5961;42.640;23.380;2023-06-10T04:21:13;93697.19;;;19.67;100.00
11808;BME280;5961;42.640;23.380;2023-06-10T04:23:40;93694.84;;;19.69;100.00
11808;BME280;5961;42.640;23.380;2023-06-10T04:26:07;93685.69;;;19.59;100.00
11808;BME280;5961;42.640;23.380;2023-06-10T04:28:35;93694.13;;;19.61;100.00
11808;BME280;5961;42.640;23.380;2023-06-10T04:31:01;93692.66;;;19.53;100.00
11808;BME280;5961;42.640;23.380;2023-06-10T04:33:29;93689.66;;;19.41;100.00
11808;BME280;5961;42.640;23.380;2023-06-10T04:35:56;93692.75;;;19.36;100.00
11808;BME280;5961;42.640;23.380;2023-06-10T04:38:22;93690.88;;;19.26;100.00
11808;BME280;5961;42.640;23.380;2023-06-10T04:40:49;93696.28;;;19.22;100.00
11808;BME280;5961;42.640;23.380;2023-06-10T04:43:16;93697.50;;;19.17;100.00
11808;BME280;5961;42.640;23.380;2023-06-10T04:45:44;93697.16;;;19.08;100.00
11808;BME280;5961;42.640;23.380;2023-06-10T04:48:11;93693.72;;;19.01;100.00
11808;BME280;5961;42.640;23.380;2023-06-10T04:50:37;93687.63;;;18.90;100.00
11808;BME280;5961;42.640;23.380;2023-06-10T04:53:04;93690.72;;;18.88;100.00
11808;BME280;5961;42.640;23.380;2023-06-10T04:55:31;93695.34;;;18.84;100.00
11808;BME280;5961;42.640;23.380;2023-06-10T04:57:58;93688.47;;;18.76;100.00
11808;BME280;5961;42.640;23.380;2023-06-10T05:00:25;93696.56;;;18.76;100.00
11808;BME280;5961;42.640;23.380;2023-06-10T05:02:53;93691.94;;;18.73;100.00
11808;BME280;5961;42.640;23.380;2023-06-10T05:05:21;93683.47;;;18.71;100.00
11808;BME280;5961;42.640;23.380;2023-06-10T05:07:48;93683.09;;;18.73;100.00
11808;BME280;5961;42.640;23.380;2023-06-10T05:10:14;93686.94;;;18.75;100.00
11808;BME280;5961;42.640;23.380;2023-06-10T05:12:41;93680.00;;;18.74;100.00
11808;BME280;5961;42.640;23.380;2023-06-10T05:15:09;93694.59;;;18.77;100.00
11808;BME280;5961;42.640;23.380;2023-06-10T05:17:36;93677.31;;;18.74;100.00
11808;BME280;5961;42.640;23.380;2023-06-10T05:20:05;93675.03;;;18.76;100.00
11808;BME280;5961;42.640;23.380;2023-06-10T05:22:32;93681.50;;;18.86;100.00
11808;BME280;5961;42.640;23.380;2023-06-10T05:24:59;93678.41;;;18.87;100.00
11808;BME280;5961;42.640;23.380;2023-06-10T05:27:26;93683.03;;;18.90;100.00
11808;BME280;5961;42.640;23.380;2023-06-10T05:29:53;93676.47;;;18.91;100.00
11808;BME280;5961;42.640;23.380;2023-06-10T05:32:19;93686.84;;;18.96;100.00
11808;BME280;5961;42.640;23.380;2023-06-10T05:34:46;93682.22;;;18.97;100.00
11808;BME280;5961;42.640;23.380;2023-06-10T05:37:14;93689.16;;;18.94;100.00
11808;BME280;5961;42.640;23.380;2023-06-10T05:39:41;93685.25;;;19.02;100.00
11808;BME280;5961;42.640;23.380;2023-06-10T05:42:08;93689.88;;;19.05;100.00
11808;BME280;5961;42.640;23.380;2023-06-10T05:44:35;93694.47;;;19.05;100.00
11808;BME280;5961;42.640;23.380;2023-06-10T05:47:02;93692.13;;;19.14;100.00
11808;BME280;5961;42.640;23.380;2023-06-10T05:49:29;93680.56;;;19.13;100.00
11808;BME280;5961;42.640;23.380;2023-06-10T05:51:55;93696.66;;;19.28;100.00
11808;BME280;5961;42.640;23.380;2023-06-10T05:54:25;93700.47;;;19.34;100.00
11808;BME280;5961;42.640;23.380;2023-06-10T05:56:52;93695.81;;;19.38;100.00
11808;BME280;5961;42.640;23.380;2023-06-10T05:59:19;93702.66;;;19.53;100.00
11808;BME280;5961;42.640;23.380;2023-06-10T06:01:45;93705.69;;;19.62;100.00
11808;BME280;5961;42.640;23.380;2023-06-10T06:04:12;93704.09;;;19.68;100.00
11808;BME280;5961;42.640;23.380;2023-06-10T06:06:39;93707.88;;;19.78;100.00
11808;BME280;5961;42.640;23.380;2023-06-10T06:09:06;93715.50;;;19.86;100.00
11808;BME280;5961;42.640;23.380;2023-06-10T06:11:34;93713.53;;;19.94;100.00
11808;BME280;5961;42.640;23.380;2023-06-10T06:14:01;93718.84;;;20.01;100.00
11808;BME280;5961;42.640;23.380;2023-06-10T06:16:28;93704.94;;;20.06;100.00
11808;BME280;5961;42.640;23.380;2023-06-10T06:18:55;93703.72;;;20.10;100.00
11808;BME280;5961;42.640;23.380;2023-06-10T06:21:21;93705.25;;;20.15;100.00
11808;BME280;5961;42.640;23.380;2023-06-10T06:23:48;93701.38;;;20.16;100.00
11808;BME280;5961;42.640;23.380;2023-06-10T06:26:15;93699.81;;;20.18;100.00
11808;BME280;5961;42.640;23.380;2023-06-10T06:28:43;93707.47;;;20.23;100.00
11808;BME280;5961;42.640;23.380;2023-06-10T06:31:10;93700.88;;;20.28;100.00
11808;BME280;5961;42.640;23.380;2023-06-10T06:33:36;93708.19;;;20.31;100.00
11808;BME280;5961;42.640;23.380;2023-06-10T06:36:03;93707.44;;;20.31;100.00
11808;BME280;5961;42.640;23.380;2023-06-10T06:38:30;93709.34;;;20.34;100.00
11808;BME280;5961;42.640;23.380;2023-06-10T06:40:57;93706.63;;;20.34;100.00
11808;BME280;5961;42.640;23.380;2023-06-10T06:43:28;93703.19;;;20.33;100.00
11808;BME280;5961;42.640;23.380;2023-06-10T06:45:56;93701.25;;;20.34;100.00
11808;BME280;5961;42.640;23.380;2023-06-10T06:48:23;93717.06;;;20.32;100.00
11808;BME280;5961;42.640;23.380;2023-06-10T06:50:50;93693.09;;;20.37;100.00
11808;BME280;5961;42.640;23.380;2023-06-10T06:53:16;93685.38;;;20.39;100.00
11808;BME280;5961;42.640;23.380;2023-06-10T06:55:43;93694.88;;;20.51;100.00
11808;BME280;5961;42.640;23.380;2023-06-10T06:58:10;93700.22;;;20.58;100.00
11808;BME280;5961;42.640;23.380;2023-06-10T07:00:36;93697.84;;;20.63;100.00
11808;BME280;5961;42.640;23.380;2023-06-10T07:03:04;93700.50;;;20.67;100.00
11808;BME280;5961;42.640;23.380;2023-06-10T07:05:31;93703.06;;;20.77;100.00
11808;BME280;5961;42.640;23.380;2023-06-10T07:07:58;93709.94;;;20.82;100.00
11808;BME280;5961;42.640;23.380;2023-06-10T07:10:25;93701.75;;;20.89;100.00
11808;BME280;5961;42.640;23.380;2023-06-10T07:12:52;93697.13;;;20.90;100.00
11808;BME280;5961;42.640;23.380;2023-06-10T07:15:19;93675.63;;;20.79;100.00
11808;BME280;5961;42.640;23.380;2023-06-10T07:17:46;93703.88;;;21.08;100.00
11808;BME280;5961;42.640;23.380;2023-06-10T07:20:14;93698.75;;;21.14;99.21
11808;BME280;5961;42.640;23.380;2023-06-10T07:22:41;93694.91;;;21.15;99.07
11808;BME280;5961;42.640;23.380;2023-06-10T07:25:08;93694.09;;;21.18;98.65
11808;BME280;5961;42.640;23.380;2023-06-10T07:27:35;93692.03;;;21.25;99.11
11808;BME280;5961;42.640;23.380;2023-06-10T07:30:02;93691.22;;;21.28;97.64
11808;BME280;5961;42.640;23.380;2023-06-10T07:32:30;93693.38;;;21.41;96.49
11808;BME280;5961;42.640;23.380;2023-06-10T07:34:56;93692.56;;;21.44;96.59
11808;BME280;5961;42.640;23.380;2023-06-10T07:37:24;93690.53;;;21.51;96.97
11808;BME280;5961;42.640;23.380;2023-06-10T07:39:51;93688.88;;;21.57;96.23
11808;BME280;5961;42.640;23.380;2023-06-10T07:42:18;93692.56;;;21.67;95.65
11808;BME280;5961;42.640;23.380;2023-06-10T07:44:44;93692.81;;;21.76;94.14
11808;BME280;5961;42.640;23.380;2023-06-10T07:47:11;93692.38;;;21.81;93.94
11808;BME280;5961;42.640;23.380;2023-06-10T07:49:38;93704.25;;;21.87;90.51
11808;BME280;5961;42.640;23.380;2023-06-10T07:52:07;93675.53;;;21.70;87.73
11808;BME280;5961;42.640;23.380;2023-06-10T07:54:35;93704.88;;;21.98;88.94
11808;BME280;5961;42.640;23.380;2023-06-10T07:57:02;93698.91;;;22.07;88.92
11808;BME280;5961;42.640;23.380;2023-06-10T07:59:28;93705.38;;;22.13;88.52
11808;BME280;5961;42.640;23.380;2023-06-10T08:01:55;93707.66;;;22.18;87.41
11808;BME280;5961;42.640;23.380;2023-06-10T08:04:22;93706.38;;;22.22;84.14
11808;BME280;5961;42.640;23.380;2023-06-10T08:06:48;93700.97;;;22.22;82.00
11808;BME280;5961;42.640;23.380;2023-06-10T08:09:15;93698.59;;;22.24;82.24
11808;BME280;5961;42.640;23.380;2023-06-10T08:11:46;93701.69;;;22.26;82.44
11808;BME280;5961;42.640;23.380;2023-06-10T08:14:13;93696.22;;;22.30;83.11
11808;BME280;5961;42.640;23.380;2023-06-10T08:16:39;93686.13;;;22.30;85.17
11808;BME280;5961;42.640;23.380;2023-06-10T08:19:06;93689.88;;;22.36;84.64
11808;BME280;5961;42.640;23.380;2023-06-10T08:21:34;93692.91;;;22.42;84.59
11808;BME280;5961;42.640;23.380;2023-06-10T08:24:02;93693.19;;;22.48;84.89
11808;BME280;5961;42.640;23.380;2023-06-10T08:26:29;93681.97;;;22.46;80.69
11808;BME280;5961;42.640;23.380;2023-06-10T08:28:57;93698.16;;;22.49;77.67
11808;BME280;5961;42.640;23.380;2023-06-10T08:31:23;93691.59;;;22.50;75.91
11808;BME280;5961;42.640;23.380;2023-06-10T08:33:50;93686.50;;;22.52;74.26
11808;BME280;5961;42.640;23.380;2023-06-10T08:36:17;93682.69;;;22.50;73.17
11808;BME280;5961;42.640;23.380;2023-06-10T08:38:43;93682.97;;;22.55;75.94
11808;BME280;5961;42.640;23.380;2023-06-10T08:41:12;93686.03;;;22.57;74.78
11808;BME280;5961;42.640;23.380;2023-06-10T08:43:43;93684.44;;;22.60;72.82
11808;BME280;5961;42.640;23.380;2023-06-10T08:46:14;93688.66;;;22.61;70.62
11808;BME280;5961;42.640;23.380;2023-06-10T08:48:43;93674.38;;;22.60;69.88
11808;BME280;5961;42.640;23.380;2023-06-10T08:51:10;93671.97;;;22.66;69.89
11808;BME280;5961;42.640;23.380;2023-06-10T08:53:42;93670.78;;;22.67;69.06
11808;BME280;5961;42.640;23.380;2023-06-10T08:56:15;93665.66;;;22.72;69.36
11808;BME280;5961;42.640;23.380;2023-06-10T08:58:43;93664.38;;;22.77;68.25
11808;BME280;5961;42.640;23.380;2023-06-10T09:01:13;93652.72;;;22.80;69.05
11808;BME280;5961;42.640;23.380;2023-06-10T09:03:42;93651.88;;;22.83;67.89
11808;BME280;5961;42.640;23.380;2023-06-10T09:06:09;93652.56;;;22.87;68.06
11808;BME280;5961;42.640;23.380;2023-06-10T09:08:36;93650.97;;;22.89;68.16
11808;BME280;5961;42.640;23.380;2023-06-10T09:11:04;93650.19;;;22.89;67.25
11808;BME280;5961;42.640;23.380;2023-06-10T09:13:30;93651.56;;;22.97;65.47
11808;BME280;5961;42.640;23.380;2023-06-10T09:15:57;93649.56;;;23.01;66.31
11808;BME280;5961;42.640;23.380;2023-06-10T09:18:27;93652.19;;;23.05;67.11
11808;BME280;5961;42.640;23.380;2023-06-10T09:20:54;93649.75;;;23.10;67.11
11808;BME280;5961;42.640;23.380;2023-06-10T09:23:21;93641.22;;;23.12;67.27
11808;BME280;5961;42.640;23.380;2023-06-10T09:25:55;93640.69;;;23.17;66.97
11808;BME280;5961;42.640;23.380;2023-06-10T09:28:22;93637.91;;;23.20;66.80
11808;BME280;5961;42.640;23.380;2023-06-10T09:30:49;93638.59;;;23.24;66.37
11808;BME280;5961;42.640;23.380;2023-06-10T09:33:16;93627.66;;;23.28;66.96
11808;BME280;5961;42.640;23.380;2023-06-10T09:35:48;93632.09;;;23.38;68.20
11808;BME280;5961;42.640;23.380;2023-06-10T09:38:19;93633.56;;;23.42;66.43
11808;BME280;5961;42.640;23.380;2023-06-10T09:40:50;93646.41;;;23.38;65.15
11808;BME280;5961;42.640;23.380;2023-06-10T09:43:17;93600.47;;;23.31;63.59
11808;BME280;5961;42.640;23.380;2023-06-10T09:45:46;93630.16;;;23.55;64.42
11808;BME280;5961;42.640;23.380;2023-06-10T09:48:13;93625.34;;;23.62;65.06
11808;BME280;5961;42.640;23.380;2023-06-10T09:50:42;93621.53;;;23.60;64.08
11808;BME280;5961;42.640;23.380;2023-06-10T09:53:11;93627.28;;;23.62;63.82
11808;BME280;5961;42.640;23.380;2023-06-10T09:55:39;93620.34;;;23.61;63.66
11808;BME280;5961;42.640;23.380;2023-06-10T09:58:05;93617.97;;;23.63;63.28
11808;BME280;5961;42.640;23.380;2023-06-10T10:00:32;93612.88;;;23.65;62.48
11808;BME280;5961;42.640;23.380;2023-06-10T10:03:00;93615.06;;;23.70;62.11
11808;BME280;5961;42.640;23.380;2023-06-10T10:05:27;93608.38;;;23.74;62.99
11808;BME280;5961;42.640;23.380;2023-06-10T10:07:55;93605.47;;;23.81;64.74
11808;BME280;5961;42.640;23.380;2023-06-10T10:10:23;93598.63;;;23.77;64.57
11808;BME280;5961;42.640;23.380;2023-06-10T10:12:53;93595.13;;;23.92;67.32
11808;BME280;5961;42.640;23.380;2023-06-10T10:15:22;93597.06;;;23.92;62.65
11808;BME280;5961;42.640;23.380;2023-06-10T10:17:53;93595.69;;;24.00;62.28
11808;BME280;5961;42.640;23.380;2023-06-10T10:20:26;93592.56;;;24.01;61.97
11808;BME280;5961;42.640;23.380;2023-06-10T10:22:56;93581.72;;;24.01;63.18
11808;BME280;5961;42.640;23.380;2023-06-10T10:25:27;93588.47;;;24.10;64.40
11808;BME280;5961;42.640;23.380;2023-06-10T10:27:57;93589.94;;;24.14;63.85
11808;BME280;5961;42.640;23.380;2023-06-10T10:30:25;93586.69;;;24.19;64.62
11808;BME280;5961;42.640;23.380;2023-06-10T10:35:23;93589.38;;;24.35;64.31
11808;BME280;5961;42.640;23.380;2023-06-10T10:37:52;93593.16;;;24.38;63.38
11808;BME280;5961;42.640;23.380;2023-06-10T10:40:19;93592.88;;;24.48;62.01
11808;BME280;5961;42.640;23.380;2023-06-10T10:42:49;93587.66;;;24.54;61.99
11808;BME280;5961;42.640;23.380;2023-06-10T10:45:15;93578.91;;;24.63;61.68
11808;BME280;5961;42.640;23.380;2023-06-10T10:47:43;93587.41;;;24.77;60.39
11808;BME280;5961;42.640;23.380;2023-06-10T10:50:14;93582.44;;;24.88;59.29
11808;BME280;5961;42.640;23.380;2023-06-10T10:52:51;93570.69;;;24.91;57.64
11808;BME280;5961;42.640;23.380;2023-06-10T10:55:19;93584.72;;;25.02;57.57
11808;BME280;5961;42.640;23.380;2023-06-10T10:57:53;93578.31;;;25.09;57.88
11808;BME280;5961;42.640;23.380;2023-06-10T11:00:26;93573.53;;;25.13;57.11
11808;BME280;5961;42.640;23.380;2023-06-10T11:02:57;93563.63;;;25.19;56.68
11808;BME280;5961;42.640;23.380;2023-06-10T11:05:31;93576.47;;;25.31;57.82
11808;BME280;5961;42.640;23.380;2023-06-10T11:07:58;93565.22;;;25.42;58.35
11808;BME280;5961;42.640;23.380;2023-06-10T11:10:29;93562.75;;;25.47;58.18
11808;BME280;5961;42.640;23.380;2023-06-10T11:12:58;93556.09;;;25.61;58.39
11808;BME280;5961;42.640;23.380;2023-06-10T11:15:26;93560.53;;;25.68;59.23
11808;BME280;5961;42.640;23.380;2023-06-10T11:18:07;93543.34;;;25.71;58.95
11808;BME280;5961;42.640;23.380;2023-06-10T11:20:45;93548.56;;;25.78;57.30
11808;BME280;5961;42.640;23.380;2023-06-10T11:23:25;93533.72;;;25.79;58.67
11808;BME280;5961;42.640;23.380;2023-06-10T11:25:51;93537.50;;;25.81;57.76
11808;BME280;5961;42.640;23.380;2023-06-10T11:28:36;93542.75;;;25.76;57.74
11808;BME280;5961;42.640;23.380;2023-06-10T11:31:03;93544.22;;;25.68;57.42
11808;BME280;5961;42.640;23.380;2023-06-10T11:33:31;93544.22;;;25.68;56.94
11808;BME280;5961;42.640;23.380;2023-06-10T11:35:58;93533.53;;;25.73;56.33
11808;BME280;5961;42.640;23.380;2023-06-10T11:38:25;93522.22;;;25.75;57.59
11808;BME280;5961;42.640;23.380;2023-06-10T11:40:51;93528.94;;;25.83;56.36
11808;BME280;5961;42.640;23.380;2023-06-10T11:43:18;93519.59;;;25.93;58.04
11808;BME280;5961;42.640;23.380;2023-06-10T11:45:46;93528.72;;;25.99;55.94
11808;BME280;5961;42.640;23.380;2023-06-10T11:48:13;93518.56;;;26.12;54.77
11808;BME280;5961;42.640;23.380;2023-06-10T11:50:40;93515.94;;;26.21;56.33
11808;BME280;5961;42.640;23.380;2023-06-10T11:53:08;93511.25;;;26.43;55.95
11808;BME280;5961;42.640;23.380;2023-06-10T11:55:42;93518.56;;;26.55;53.53
11808;BME280;5961;42.640;23.380;2023-06-10T11:58:12;93509.47;;;26.49;53.30
11808;BME280;5961;42.640;23.380;2023-06-10T12:00:44;93519.94;;;26.60;51.91
11808;BME280;5961;42.640;23.380;2023-06-10T12:03:12;93516.50;;;26.68;53.63
11808;BME280;5961;42.640;23.380;2023-06-10T12:05:39;93513.16;;;26.64;51.22
11808;BME280;5961;42.640;23.380;2023-06-10T12:08:09;93501.00;;;26.56;52.34
11808;BME280;5961;42.640;23.380;2023-06-10T12:10:40;93514.06;;;26.61;51.13
11808;BME280;5961;42.640;23.380;2023-06-10T12:13:08;93516.28;;;26.54;52.54
11808;BME280;5961;42.640;23.380;2023-06-10T12:15:35;93515.50;;;26.53;51.78
11808;BME280;5961;42.640;23.380;2023-06-10T12:18:01;93505.06;;;26.52;52.45
11808;BME280;5961;42.640;23.380;2023-06-10T12:20:31;93506.09;;;26.45;51.57
11808;BME280;5961;42.640;23.380;2023-06-10T12:22:59;93499.44;;;26.46;52.35
11808;BME280;5961;42.640;23.380;2023-06-10T12:25:27;93494.25;;;26.39;50.90
11808;BME280;5961;42.640;23.380;2023-06-10T12:27:56;93502.28;;;26.43;52.91
11808;BME280;5961;42.640;23.380;2023-06-10T12:30:24;93499.25;;;26.41;52.03
11808;BME280;5961;42.640;23.380;2023-06-10T12:32:52;93492.72;;;26.38;49.83
11808;BME280;5961;42.640;23.380;2023-06-10T12:35:20;93520.31;;;26.40;50.54
11808;BME280;5961;42.640;23.380;2023-06-10T12:37:56;93494.25;;;26.39;51.76
11808;BME280;5961;42.640;23.380;2023-06-10T12:40:28;93495.13;;;26.36;49.35
11808;BME280;5961;42.640;23.380;2023-06-10T12:42:57;93487.50;;;26.22;49.29
11808;BME280;5961;42.640;23.380;2023-06-10T12:45:27;93471.28;;;26.18;47.86
11808;BME280;5961;42.640;23.380;2023-06-10T12:48:04;93481.34;;;26.31;48.53
11808;BME280;5961;42.640;23.380;2023-06-10T12:50:32;93482.19;;;26.49;47.92
11808;BME280;5961;42.640;23.380;2023-06-10T12:53:00;93473.66;;;26.38;49.83
11808;BME280;5961;42.640;23.380;2023-06-10T12:55:27;93481.81;;;26.38;50.57
11808;BME280;5961;42.640;23.380;2023-06-10T12:57:54;93475.75;;;26.34;50.54
11808;BME280;5961;42.640;23.380;2023-06-10T13:00:21;93482.28;;;26.37;48.52